GCGM/GMZ METAR and TAF weather

Enter ICAO airport designator
Station Type Date Time Source
GCGM METAR 2020/10/20 17:00 UTC NOAA

GCGM 201700Z 24012KT 210V270 9999 FEW020 SCT055 24/18 Q1014 RMK R09/25011KT ARP/26011KT 230V290


Station Type Date Time Source
GCGM Decoded METAR 2020/10/20 17:00 UTC NOAA

Station name not available
Oct 20, 2020 - 01:00 PM EDT / 2020.10.20 1700 UTC
Wind: from the WSW (240 degrees) at 14 MPH (12 KT) (direction variable):0
Visibility: greater than 7 mile(s):0
Sky conditions: partly cloudy
Temperature: 75 F (24 C)
Dew Point: 64 F (18 C)
Relative Humidity: 69%
Pressure (altimeter): 29.94 in. Hg (1014 hPa)
ob: GCGM 201700Z 24012KT 210V270 9999 FEW020 SCT055 24/18 Q1014 RMK R09/25011KT ARP/26011KT 230V290
cycle: 17

Station Type Date Time Source
GCGM TAF 2020/10/20 15:00 UTC NOAA

TAF GCGM 201400Z 2015/2115 26018KT 9999 SCT020 TX24/2114Z TN19/2106Z PROB40
TEMPO 2015/2017 25018G28KT
TEMPO 2015/2016 3500 RA PROB30
TEMPO 2015/2016 SHRA SCT020TCU

Example: see airport list